sensor_id;sensor_type;location;lat;lon;timestamp;P1;durP1;ratioP1;P2;durP2;ratioP2
34902;SDS011;21114;44.840;0.214;2023-12-20T00:00:14;15.45;;;11.55;;
34902;SDS011;21114;44.840;0.214;2023-12-20T00:02:42;11.73;;;10.30;;
34902;SDS011;21114;44.840;0.214;2023-12-20T00:05:12;14.73;;;10.25;;
34902;SDS011;21114;44.840;0.214;2023-12-20T00:07:40;13.00;;;9.82;;
34902;SDS011;21114;44.840;0.214;2023-12-20T00:10:06;10.88;;;9.38;;
34902;SDS011;21114;44.840;0.214;2023-12-20T00:12:32;15.05;;;12.30;;
34902;SDS011;21114;44.840;0.214;2023-12-20T00:14:58;13.43;;;11.20;;
34902;SDS011;21114;44.840;0.214;2023-12-20T00:17:24;9.80;;;8.82;;
34902;SDS011;21114;44.840;0.214;2023-12-20T00:19:50;16.02;;;11.23;;
34902;SDS011;21114;44.840;0.214;2023-12-20T00:22:16;10.68;;;9.48;;
34902;SDS011;21114;44.840;0.214;2023-12-20T00:24:42;9.80;;;7.68;;
34902;SDS011;21114;44.840;0.214;2023-12-20T00:27:08;9.27;;;8.38;;
34902;SDS011;21114;44.840;0.214;2023-12-20T00:29:36;9.60;;;8.35;;
34902;SDS011;21114;44.840;0.214;2023-12-20T00:32:02;11.40;;;8.93;;
34902;SDS011;21114;44.840;0.214;2023-12-20T00:34:29;10.30;;;7.93;;
34902;SDS011;21114;44.840;0.214;2023-12-20T00:36:55;9.32;;;8.20;;
34902;SDS011;21114;44.840;0.214;2023-12-20T00:39:25;9.25;;;8.35;;
34902;SDS011;21114;44.840;0.214;2023-12-20T00:41:51;15.13;;;9.02;;
34902;SDS011;21114;44.840;0.214;2023-12-20T00:44:19;9.73;;;8.82;;
34902;SDS011;21114;44.840;0.214;2023-12-20T00:46:45;9.35;;;8.35;;
34902;SDS011;21114;44.840;0.214;2023-12-20T00:49:11;9.63;;;8.48;;
34902;SDS011;21114;44.840;0.214;2023-12-20T00:51:37;10.52;;;7.53;;
34902;SDS011;21114;44.840;0.214;2023-12-20T00:54:04;8.13;;;7.32;;
34902;SDS011;21114;44.840;0.214;2023-12-20T00:56:30;7.97;;;7.18;;
34902;SDS011;21114;44.840;0.214;2023-12-20T00:58:56;7.53;;;6.78;;
34902;SDS011;21114;44.840;0.214;2023-12-20T01:01:22;7.10;;;6.40;;
34902;SDS011;21114;44.840;0.214;2023-12-20T01:03:48;8.05;;;7.25;;
34902;SDS011;21114;44.840;0.214;2023-12-20T01:06:16;8.15;;;7.45;;
34902;SDS011;21114;44.840;0.214;2023-12-20T01:08:42;7.22;;;6.50;;
34902;SDS011;21114;44.840;0.214;2023-12-20T01:11:08;8.30;;;6.70;;
34902;SDS011;21114;44.840;0.214;2023-12-20T01:13:34;7.10;;;6.40;;
34902;SDS011;21114;44.840;0.214;2023-12-20T01:16:00;10.90;;;7.25;;
34902;SDS011;21114;44.840;0.214;2023-12-20T01:18:27;7.60;;;6.75;;
34902;SDS011;21114;44.840;0.214;2023-12-20T01:20:53;8.18;;;7.43;;
34902;SDS011;21114;44.840;0.214;2023-12-20T01:23:19;6.72;;;6.13;;
34902;SDS011;21114;44.840;0.214;2023-12-20T01:25:45;7.60;;;6.57;;
34902;SDS011;21114;44.840;0.214;2023-12-20T01:28:11;6.88;;;6.25;;
34902;SDS011;21114;44.840;0.214;2023-12-20T01:30:37;7.22;;;6.38;;
34902;SDS011;21114;44.840;0.214;2023-12-20T01:33:05;7.38;;;6.68;;
34902;SDS011;21114;44.840;0.214;2023-12-20T01:35:31;7.00;;;6.35;;
34902;SDS011;21114;44.840;0.214;2023-12-20T01:37:57;7.70;;;6.22;;
34902;SDS011;21114;44.840;0.214;2023-12-20T01:40:23;6.28;;;5.68;;
34902;SDS011;21114;44.840;0.214;2023-12-20T01:42:59;8.18;;;5.93;;
34902;SDS011;21114;44.840;0.214;2023-12-20T01:45:26;6.78;;;6.07;;
34902;SDS011;21114;44.840;0.214;2023-12-20T01:47:52;6.20;;;5.60;;
34902;SDS011;21114;44.840;0.214;2023-12-20T01:50:18;6.35;;;5.80;;
34902;SDS011;21114;44.840;0.214;2023-12-20T01:52:44;8.77;;;5.63;;
34902;SDS011;21114;44.840;0.214;2023-12-20T01:55:10;5.88;;;5.38;;
34902;SDS011;21114;44.840;0.214;2023-12-20T01:57:40;7.85;;;6.15;;
34902;SDS011;21114;44.840;0.214;2023-12-20T02:00:06;6.75;;;6.05;;
34902;SDS011;21114;44.840;0.214;2023-12-20T02:02:34;7.43;;;6.53;;
34902;SDS011;21114;44.840;0.214;2023-12-20T02:05:01;7.35;;;6.57;;
34902;SDS011;21114;44.840;0.214;2023-12-20T02:07:28;8.05;;;7.25;;
34902;SDS011;21114;44.840;0.214;2023-12-20T02:09:55;6.53;;;5.95;;
34902;SDS011;21114;44.840;0.214;2023-12-20T02:12:21;7.00;;;5.80;;
34902;SDS011;21114;44.840;0.214;2023-12-20T02:14:49;7.18;;;6.47;;
34902;SDS011;21114;44.840;0.214;2023-12-20T02:17:19;6.38;;;5.78;;
34902;SDS011;21114;44.840;0.214;2023-12-20T02:19:46;7.75;;;6.95;;
34902;SDS011;21114;44.840;0.214;2023-12-20T02:22:13;8.52;;;5.32;;
34902;SDS011;21114;44.840;0.214;2023-12-20T02:24:39;8.98;;;5.95;;
34902;SDS011;21114;44.840;0.214;2023-12-20T02:27:05;7.63;;;6.25;;
34902;SDS011;21114;44.840;0.214;2023-12-20T02:29:32;6.50;;;5.90;;
34902;SDS011;21114;44.840;0.214;2023-12-20T02:31:58;7.20;;;6.50;;
34902;SDS011;21114;44.840;0.214;2023-12-20T02:34:24;6.60;;;5.85;;
34902;SDS011;21114;44.840;0.214;2023-12-20T02:36:50;6.80;;;5.88;;
34902;SDS011;21114;44.840;0.214;2023-12-20T02:39:16;7.50;;;6.72;;
34902;SDS011;21114;44.840;0.214;2023-12-20T02:41:43;7.57;;;5.95;;
34902;SDS011;21114;44.840;0.214;2023-12-20T02:44:09;6.95;;;6.25;;
34902;SDS011;21114;44.840;0.214;2023-12-20T02:46:37;6.15;;;5.28;;
34902;SDS011;21114;44.840;0.214;2023-12-20T02:49:03;7.25;;;6.30;;
34902;SDS011;21114;44.840;0.214;2023-12-20T02:51:29;6.45;;;5.88;;
34902;SDS011;21114;44.840;0.214;2023-12-20T02:53:55;7.45;;;6.80;;
34902;SDS011;21114;44.840;0.214;2023-12-20T02:56:21;5.20;;;4.70;;
34902;SDS011;21114;44.840;0.214;2023-12-20T02:58:47;5.47;;;4.97;;
34902;SDS011;21114;44.840;0.214;2023-12-20T03:01:13;6.30;;;5.68;;
34902;SDS011;21114;44.840;0.214;2023-12-20T03:03:39;6.45;;;5.13;;
34902;SDS011;21114;44.840;0.214;2023-12-20T03:06:05;6.00;;;5.45;;
34902;SDS011;21114;44.840;0.214;2023-12-20T03:08:31;5.53;;;5.03;;
34902;SDS011;21114;44.840;0.214;2023-12-20T03:10:59;5.97;;;5.30;;
34902;SDS011;21114;44.840;0.214;2023-12-20T03:13:25;6.20;;;5.07;;
34902;SDS011;21114;44.840;0.214;2023-12-20T03:15:51;4.88;;;4.38;;
34902;SDS011;21114;44.840;0.214;2023-12-20T03:18:17;4.20;;;3.75;;
34902;SDS011;21114;44.840;0.214;2023-12-20T03:20:43;4.80;;;3.80;;
34902;SDS011;21114;44.840;0.214;2023-12-20T03:23:09;5.30;;;3.28;;
34902;SDS011;21114;44.840;0.214;2023-12-20T03:25:35;2.20;;;2.00;;
34902;SDS011;21114;44.840;0.214;2023-12-20T03:28:01;2.20;;;2.00;;
34902;SDS011;21114;44.840;0.214;2023-12-20T03:30:27;2.75;;;2.13;;
34902;SDS011;21114;44.840;0.214;2023-12-20T03:32:53;1.33;;;1.23;;
34902;SDS011;21114;44.840;0.214;2023-12-20T03:35:19;1.58;;;1.48;;
34902;SDS011;21114;44.840;0.214;2023-12-20T03:37:47;1.65;;;1.27;;
34902;SDS011;21114;44.840;0.214;2023-12-20T03:40:13;1.13;;;0.98;;
34902;SDS011;21114;44.840;0.214;2023-12-20T03:42:39;1.40;;;1.20;;
34902;SDS011;21114;44.840;0.214;2023-12-20T03:45:05;1.13;;;1.02;;
34902;SDS011;21114;44.840;0.214;2023-12-20T03:47:32;1.00;;;0.90;;
34902;SDS011;21114;44.840;0.214;2023-12-20T03:49:58;1.05;;;0.80;;
34902;SDS011;21114;44.840;0.214;2023-12-20T03:52:24;1.20;;;1.00;;
34902;SDS011;21114;44.840;0.214;2023-12-20T03:54:50;1.50;;;1.20;;
34902;SDS011;21114;44.840;0.214;2023-12-20T03:57:16;1.20;;;0.95;;
34902;SDS011;21114;44.840;0.214;2023-12-20T03:59:42;1.27;;;0.90;;
34902;SDS011;21114;44.840;0.214;2023-12-20T04:02:10;0.85;;;0.85;;
34902;SDS011;21114;44.840;0.214;2023-12-20T04:04:36;0.68;;;0.63;;
34902;SDS011;21114;44.840;0.214;2023-12-20T04:07:02;5.28;;;1.38;;
34902;SDS011;21114;44.840;0.214;2023-12-20T04:09:28;1.00;;;0.90;;
34902;SDS011;21114;44.840;0.214;2023-12-20T04:11:54;0.77;;;0.60;;
34902;SDS011;21114;44.840;0.214;2023-12-20T04:14:20;1.13;;;1.02;;
34902;SDS011;21114;44.840;0.214;2023-12-20T04:16:46;0.80;;;0.80;;
34902;SDS011;21114;44.840;0.214;2023-12-20T04:19:12;1.65;;;0.90;;
34902;SDS011;21114;44.840;0.214;2023-12-20T04:21:38;1.05;;;0.95;;
34902;SDS011;21114;44.840;0.214;2023-12-20T04:24:04;1.25;;;1.10;;
34902;SDS011;21114;44.840;0.214;2023-12-20T04:26:30;1.30;;;1.20;;
34902;SDS011;21114;44.840;0.214;2023-12-20T04:28:56;1.45;;;1.30;;
34902;SDS011;21114;44.840;0.214;2023-12-20T04:31:22;1.63;;;1.45;;
34902;SDS011;21114;44.840;0.214;2023-12-20T04:33:48;1.60;;;1.25;;
34902;SDS011;21114;44.840;0.214;2023-12-20T04:36:14;2.30;;;1.63;;
34902;SDS011;21114;44.840;0.214;2023-12-20T04:38:40;2.08;;;1.65;;
34902;SDS011;21114;44.840;0.214;2023-12-20T04:41:06;2.00;;;1.80;;
34902;SDS011;21114;44.840;0.214;2023-12-20T04:43:33;3.38;;;1.67;;
34902;SDS011;21114;44.840;0.214;2023-12-20T04:46:03;2.47;;;2.08;;
34902;SDS011;21114;44.840;0.214;2023-12-20T04:48:29;2.20;;;1.65;;
34902;SDS011;21114;44.840;0.214;2023-12-20T04:50:59;1.75;;;1.35;;
34902;SDS011;21114;44.840;0.214;2023-12-20T04:53:25;1.52;;;1.40;;
34902;SDS011;21114;44.840;0.214;2023-12-20T04:55:53;3.13;;;1.83;;
34902;SDS011;21114;44.840;0.214;2023-12-20T04:58:19;3.55;;;1.48;;
34902;SDS011;21114;44.840;0.214;2023-12-20T05:00:45;1.75;;;1.65;;
34902;SDS011;21114;44.840;0.214;2023-12-20T05:03:11;1.60;;;1.50;;
34902;SDS011;21114;44.840;0.214;2023-12-20T05:05:37;2.28;;;2.00;;
34902;SDS011;21114;44.840;0.214;2023-12-20T05:08:03;3.00;;;1.95;;
34902;SDS011;21114;44.840;0.214;2023-12-20T05:10:29;8.95;;;6.63;;
34902;SDS011;21114;44.840;0.214;2023-12-20T05:12:55;2.25;;;2.05;;
34902;SDS011;21114;44.840;0.214;2023-12-20T05:15:22;3.67;;;2.63;;
34902;SDS011;21114;44.840;0.214;2023-12-20T05:17:48;3.17;;;1.90;;
34902;SDS011;21114;44.840;0.214;2023-12-20T05:20:14;2.72;;;1.50;;
34902;SDS011;21114;44.840;0.214;2023-12-20T05:22:40;2.67;;;1.55;;
34902;SDS011;21114;44.840;0.214;2023-12-20T05:25:07;2.35;;;1.45;;
34902;SDS011;21114;44.840;0.214;2023-12-20T05:27:33;1.25;;;1.10;;
34902;SDS011;21114;44.840;0.214;2023-12-20T05:29:59;3.67;;;1.30;;
34902;SDS011;21114;44.840;0.214;2023-12-20T05:32:25;2.85;;;1.67;;
34902;SDS011;21114;44.840;0.214;2023-12-20T05:34:51;2.13;;;1.38;;
34902;SDS011;21114;44.840;0.214;2023-12-20T05:37:17;3.08;;;1.73;;
34902;SDS011;21114;44.840;0.214;2023-12-20T05:39:43;2.13;;;1.30;;
34902;SDS011;21114;44.840;0.214;2023-12-20T05:42:09;2.30;;;1.35;;
34902;SDS011;21114;44.840;0.214;2023-12-20T05:44:35;1.63;;;1.40;;
34902;SDS011;21114;44.840;0.214;2023-12-20T05:47:02;4.25;;;1.73;;
34902;SDS011;21114;44.840;0.214;2023-12-20T05:49:28;3.40;;;2.28;;
34902;SDS011;21114;44.840;0.214;2023-12-20T05:51:56;2.08;;;1.48;;
34902;SDS011;21114;44.840;0.214;2023-12-20T05:54:22;2.65;;;1.25;;
34902;SDS011;21114;44.840;0.214;2023-12-20T05:56:48;2.95;;;1.67;;
34902;SDS011;21114;44.840;0.214;2023-12-20T05:59:15;3.38;;;2.00;;
34902;SDS011;21114;44.840;0.214;2023-12-20T06:01:41;6.55;;;1.25;;
34902;SDS011;21114;44.840;0.214;2023-12-20T06:04:07;1.80;;;1.38;;
34902;SDS011;21114;44.840;0.214;2023-12-20T06:06:33;3.45;;;1.17;;
34902;SDS011;21114;44.840;0.214;2023-12-20T06:08:59;3.00;;;1.65;;
34902;SDS011;21114;44.840;0.214;2023-12-20T06:11:27;3.63;;;1.30;;
34902;SDS011;21114;44.840;0.214;2023-12-20T06:13:53;3.67;;;1.30;;
34902;SDS011;21114;44.840;0.214;2023-12-20T06:16:24;6.07;;;1.27;;
34902;SDS011;21114;44.840;0.214;2023-12-20T06:18:50;4.20;;;1.20;;
34902;SDS011;21114;44.840;0.214;2023-12-20T06:21:16;4.70;;;1.15;;
34902;SDS011;21114;44.840;0.214;2023-12-20T06:23:42;4.80;;;2.30;;
34902;SDS011;21114;44.840;0.214;2023-12-20T06:26:10;5.85;;;1.75;;
34902;SDS011;21114;44.840;0.214;2023-12-20T06:28:36;5.80;;;1.65;;
34902;SDS011;21114;44.840;0.214;2023-12-20T06:31:02;3.42;;;1.00;;
34902;SDS011;21114;44.840;0.214;2023-12-20T06:33:28;4.28;;;1.27;;
34902;SDS011;21114;44.840;0.214;2023-12-20T06:35:57;5.65;;;1.13;;
34902;SDS011;21114;44.840;0.214;2023-12-20T06:38:23;2.05;;;0.90;;
34902;SDS011;21114;44.840;0.214;2023-12-20T06:40:51;2.63;;;1.42;;
34902;SDS011;21114;44.840;0.214;2023-12-20T06:43:17;2.85;;;1.02;;
34902;SDS011;21114;44.840;0.214;2023-12-20T06:45:43;3.15;;;1.27;;
34902;SDS011;21114;44.840;0.214;2023-12-20T06:48:09;1.83;;;0.70;;
34902;SDS011;21114;44.840;0.214;2023-12-20T06:50:37;2.53;;;0.57;;
34902;SDS011;21114;44.840;0.214;2023-12-20T06:53:06;2.38;;;1.17;;
34902;SDS011;21114;44.840;0.214;2023-12-20T06:55:33;3.28;;;0.73;;
34902;SDS011;21114;44.840;0.214;2023-12-20T06:58:00;4.68;;;1.02;;
34902;SDS011;21114;44.840;0.214;2023-12-20T07:00:32;4.07;;;0.80;;
34902;SDS011;21114;44.840;0.214;2023-12-20T07:02:59;2.90;;;0.70;;
34902;SDS011;21114;44.840;0.214;2023-12-20T07:05:27;3.38;;;1.33;;
34902;SDS011;21114;44.840;0.214;2023-12-20T07:07:55;5.68;;;2.85;;
34902;SDS011;21114;44.840;0.214;2023-12-20T07:10:21;2.55;;;1.27;;
34902;SDS011;21114;44.840;0.214;2023-12-20T07:12:47;3.05;;;1.65;;
34902;SDS011;21114;44.840;0.214;2023-12-20T07:15:13;5.85;;;1.00;;
34902;SDS011;21114;44.840;0.214;2023-12-20T07:17:39;2.35;;;1.00;;
34902;SDS011;21114;44.840;0.214;2023-12-20T07:20:06;4.10;;;1.90;;
34902;SDS011;21114;44.840;0.214;2023-12-20T07:22:34;3.80;;;1.30;;
34902;SDS011;21114;44.840;0.214;2023-12-20T07:25:01;9.07;;;2.65;;
34902;SDS011;21114;44.840;0.214;2023-12-20T07:27:27;7.22;;;2.90;;
34902;SDS011;21114;44.840;0.214;2023-12-20T07:29:53;4.03;;;1.60;;
34902;SDS011;21114;44.840;0.214;2023-12-20T07:32:19;7.10;;;2.03;;
34902;SDS011;21114;44.840;0.214;2023-12-20T07:34:45;3.38;;;1.85;;
34902;SDS011;21114;44.840;0.214;2023-12-20T07:37:11;5.32;;;1.50;;
34902;SDS011;21114;44.840;0.214;2023-12-20T07:39:43;5.80;;;2.42;;
34902;SDS011;21114;44.840;0.214;2023-12-20T07:42:09;5.15;;;1.48;;
34902;SDS011;21114;44.840;0.214;2023-12-20T07:44:36;5.00;;;1.27;;
34902;SDS011;21114;44.840;0.214;2023-12-20T07:47:02;4.15;;;1.30;;
34902;SDS011;21114;44.840;0.214;2023-12-20T07:49:28;4.63;;;1.63;;
34902;SDS011;21114;44.840;0.214;2023-12-20T07:51:57;4.97;;;1.35;;
34902;SDS011;21114;44.840;0.214;2023-12-20T07:54:23;8.82;;;3.38;;
34902;SDS011;21114;44.840;0.214;2023-12-20T07:56:49;4.40;;;1.90;;
34902;SDS011;21114;44.840;0.214;2023-12-20T07:59:15;5.80;;;1.92;;
34902;SDS011;21114;44.840;0.214;2023-12-20T08:01:41;4.47;;;1.35;;
34902;SDS011;21114;44.840;0.214;2023-12-20T08:04:08;4.60;;;1.58;;
34902;SDS011;21114;44.840;0.214;2023-12-20T08:06:34;5.80;;;1.48;;
34902;SDS011;21114;44.840;0.214;2023-12-20T08:09:00;9.15;;;3.60;;
34902;SDS011;21114;44.840;0.214;2023-12-20T08:11:26;6.10;;;1.73;;
34902;SDS011;21114;44.840;0.214;2023-12-20T08:13:52;6.78;;;2.50;;
34902;SDS011;21114;44.840;0.214;2023-12-20T08:16:18;7.18;;;3.65;;
34902;SDS011;21114;44.840;0.214;2023-12-20T08:18:44;4.90;;;2.05;;
34902;SDS011;21114;44.840;0.214;2023-12-20T08:21:10;10.57;;;1.92;;
34902;SDS011;21114;44.840;0.214;2023-12-20T08:23:39;6.63;;;2.03;;
34902;SDS011;21114;44.840;0.214;2023-12-20T08:26:05;2.78;;;1.70;;
34902;SDS011;21114;44.840;0.214;2023-12-20T08:28:31;7.13;;;1.95;;
34902;SDS011;21114;44.840;0.214;2023-12-20T08:30:57;5.90;;;2.35;;
34902;SDS011;21114;44.840;0.214;2023-12-20T08:33:23;3.80;;;1.95;;
34902;SDS011;21114;44.840;0.214;2023-12-20T08:35:50;5.22;;;2.25;;
34902;SDS011;21114;44.840;0.214;2023-12-20T08:38:16;5.18;;;1.48;;
34902;SDS011;21114;44.840;0.214;2023-12-20T08:40:42;11.13;;;2.80;;
34902;SDS011;21114;44.840;0.214;2023-12-20T08:43:08;4.25;;;2.08;;
34902;SDS011;21114;44.840;0.214;2023-12-20T08:45:37;3.80;;;1.83;;
34902;SDS011;21114;44.840;0.214;2023-12-20T08:48:05;4.78;;;1.40;;
34902;SDS011;21114;44.840;0.214;2023-12-20T08:50:32;4.50;;;1.52;;
34902;SDS011;21114;44.840;0.214;2023-12-20T08:52:58;9.27;;;3.67;;
34902;SDS011;21114;44.840;0.214;2023-12-20T08:55:26;3.22;;;1.13;;
34902;SDS011;21114;44.840;0.214;2023-12-20T08:57:54;6.30;;;2.78;;
34902;SDS011;21114;44.840;0.214;2023-12-20T09:02:56;3.67;;;1.13;;
34902;SDS011;21114;44.840;0.214;2023-12-20T09:05:22;6.80;;;2.42;;
34902;SDS011;21114;44.840;0.214;2023-12-20T09:07:48;7.25;;;1.75;;
34902;SDS011;21114;44.840;0.214;2023-12-20T09:10:14;8.45;;;2.17;;
34902;SDS011;21114;44.840;0.214;2023-12-20T09:12:40;8.55;;;2.92;;
34902;SDS011;21114;44.840;0.214;2023-12-20T09:15:07;6.30;;;1.88;;
34902;SDS011;21114;44.840;0.214;2023-12-20T09:17:33;4.43;;;2.30;;
34902;SDS011;21114;44.840;0.214;2023-12-20T09:19:59;3.95;;;1.90;;
34902;SDS011;21114;44.840;0.214;2023-12-20T09:22:27;13.13;;;1.95;;
34902;SDS011;21114;44.840;0.214;2023-12-20T09:24:53;7.43;;;2.30;;
34902;SDS011;21114;44.840;0.214;2023-12-20T09:27:19;10.70;;;4.25;;
34902;SDS011;21114;44.840;0.214;2023-12-20T09:29:45;2.28;;;1.10;;
34902;SDS011;21114;44.840;0.214;2023-12-20T09:32:13;4.05;;;1.33;;
34902;SDS011;21114;44.840;0.214;2023-12-20T09:34:39;8.05;;;2.40;;
34902;SDS011;21114;44.840;0.214;2023-12-20T09:37:07;5.35;;;1.88;;
34902;SDS011;21114;44.840;0.214;2023-12-20T09:39:36;3.60;;;1.88;;
34902;SDS011;21114;44.840;0.214;2023-12-20T09:42:05;12.98;;;2.40;;
34902;SDS011;21114;44.840;0.214;2023-12-20T09:44:32;8.75;;;3.15;;
34902;SDS011;21114;44.840;0.214;2023-12-20T09:46:59;9.43;;;2.70;;
34902;SDS011;21114;44.840;0.214;2023-12-20T09:49:27;4.43;;;1.85;;
34902;SDS011;21114;44.840;0.214;2023-12-20T09:51:56;8.13;;;3.05;;
34902;SDS011;21114;44.840;0.214;2023-12-20T09:54:22;5.15;;;2.10;;
34902;SDS011;21114;44.840;0.214;2023-12-20T09:56:49;5.43;;;2.33;;
34902;SDS011;21114;44.840;0.214;2023-12-20T09:59:15;8.70;;;2.08;;
34902;SDS011;21114;44.840;0.214;2023-12-20T10:01:41;8.27;;;2.83;;
34902;SDS011;21114;44.840;0.214;2023-12-20T10:04:08;2.83;;;1.17;;
34902;SDS011;21114;44.840;0.214;2023-12-20T10:06:37;9.30;;;2.60;;
34902;SDS011;21114;44.840;0.214;2023-12-20T10:09:03;7.18;;;1.60;;
34902;SDS011;21114;44.840;0.214;2023-12-20T10:11:29;5.82;;;2.42;;
34902;SDS011;21114;44.840;0.214;2023-12-20T10:13:59;11.90;;;2.75;;
34902;SDS011;21114;44.840;0.214;2023-12-20T10:16:27;5.78;;;2.15;;
34902;SDS011;21114;44.840;0.214;2023-12-20T10:18:56;7.32;;;1.85;;
34902;SDS011;21114;44.840;0.214;2023-12-20T10:21:26;8.35;;;2.15;;
34902;SDS011;21114;44.840;0.214;2023-12-20T10:23:55;9.50;;;1.77;;
34902;SDS011;21114;44.840;0.214;2023-12-20T10:26:25;11.55;;;2.83;;
34902;SDS011;21114;44.840;0.214;2023-12-20T10:28:52;6.88;;;2.05;;
34902;SDS011;21114;44.840;0.214;2023-12-20T10:31:33;5.80;;;2.10;;
34902;SDS011;21114;44.840;0.214;2023-12-20T10:34:00;11.60;;;2.40;;
34902;SDS011;21114;44.840;0.214;2023-12-20T10:36:29;7.78;;;2.17;;
34902;SDS011;21114;44.840;0.214;2023-12-20T10:38:56;9.75;;;2.47;;
34902;SDS011;21114;44.840;0.214;2023-12-20T10:41:24;13.13;;;4.05;;
34902;SDS011;21114;44.840;0.214;2023-12-20T10:43:52;5.13;;;2.10;;
34902;SDS011;21114;44.840;0.214;2023-12-20T10:46:21;3.80;;;1.50;;
34902;SDS011;21114;44.840;0.214;2023-12-20T10:48:47;9.10;;;2.83;;
34902;SDS011;21114;44.840;0.214;2023-12-20T10:51:14;12.02;;;3.30;;
34902;SDS011;21114;44.840;0.214;2023-12-20T10:53:43;6.72;;;2.15;;
34902;SDS011;21114;44.840;0.214;2023-12-20T10:56:10;4.97;;;2.88;;
34902;SDS011;21114;44.840;0.214;2023-12-20T10:58:43;7.93;;;1.45;;
34902;SDS011;21114;44.840;0.214;2023-12-20T11:01:09;4.20;;;1.42;;
34902;SDS011;21114;44.840;0.214;2023-12-20T11:03:37;4.13;;;1.25;;
34902;SDS011;21114;44.840;0.214;2023-12-20T11:06:11;5.53;;;1.80;;
34902;SDS011;21114;44.840;0.214;2023-12-20T11:08:49;5.13;;;2.75;;
34902;SDS011;21114;44.840;0.214;2023-12-20T11:11:26;10.50;;;3.00;;
34902;SDS011;21114;44.840;0.214;2023-12-20T11:13:56;7.00;;;1.80;;
34902;SDS011;21114;44.840;0.214;2023-12-20T11:16:23;10.55;;;3.20;;
34902;SDS011;21114;44.840;0.214;2023-12-20T11:18:51;8.45;;;2.38;;
34902;SDS011;21114;44.840;0.214;2023-12-20T11:21:19;5.47;;;1.42;;
34902;SDS011;21114;44.840;0.214;2023-12-20T11:23:45;4.97;;;3.05;;
34902;SDS011;21114;44.840;0.214;2023-12-20T11:26:11;10.00;;;2.45;;
34902;SDS011;21114;44.840;0.214;2023-12-20T11:28:41;6.47;;;1.80;;
34902;SDS011;21114;44.840;0.214;2023-12-20T11:31:07;3.67;;;1.35;;
34902;SDS011;21114;44.840;0.214;2023-12-20T11:33:36;9.55;;;1.30;;
34902;SDS011;21114;44.840;0.214;2023-12-20T11:36:12;7.20;;;1.95;;
34902;SDS011;21114;44.840;0.214;2023-12-20T11:38:38;7.35;;;3.67;;
34902;SDS011;21114;44.840;0.214;2023-12-20T11:41:07;5.63;;;1.40;;
34902;SDS011;21114;44.840;0.214;2023-12-20T11:43:37;7.60;;;1.40;;
34902;SDS011;21114;44.840;0.214;2023-12-20T11:46:06;2.97;;;1.23;;
34902;SDS011;21114;44.840;0.214;2023-12-20T11:48:34;7.00;;;2.40;;
34902;SDS011;21114;44.840;0.214;2023-12-20T11:51:00;8.43;;;1.98;;
34902;SDS011;21114;44.840;0.214;2023-12-20T11:53:31;6.63;;;1.23;;
34902;SDS011;21114;44.840;0.214;2023-12-20T11:55:58;5.72;;;1.23;;
34902;SDS011;21114;44.840;0.214;2023-12-20T11:58:25;6.60;;;1.55;;
34902;SDS011;21114;44.840;0.214;2023-12-20T12:00:51;7.28;;;3.22;;
34902;SDS011;21114;44.840;0.214;2023-12-20T12:03:17;7.80;;;3.00;;
34902;SDS011;21114;44.840;0.214;2023-12-20T12:05:43;4.18;;;1.75;;
34902;SDS011;21114;44.840;0.214;2023-12-20T12:08:09;2.97;;;1.52;;
34902;SDS011;21114;44.840;0.214;2023-12-20T12:10:35;7.57;;;2.85;;
34902;SDS011;21114;44.840;0.214;2023-12-20T12:13:01;4.32;;;2.72;;
34902;SDS011;21114;44.840;0.214;2023-12-20T12:15:27;4.75;;;1.73;;
34902;SDS011;21114;44.840;0.214;2023-12-20T12:17:54;6.35;;;2.47;;
34902;SDS011;21114;44.840;0.214;2023-12-20T12:20:21;9.75;;;1.67;;
34902;SDS011;21114;44.840;0.214;2023-12-20T12:22:57;6.10;;;1.95;;
34902;SDS011;21114;44.840;0.214;2023-12-20T12:25:28;8.55;;;1.95;;
34902;SDS011;21114;44.840;0.214;2023-12-20T12:27:55;6.88;;;1.92;;
34902;SDS011;21114;44.840;0.214;2023-12-20T12:30:21;3.63;;;0.98;;
34902;SDS011;21114;44.840;0.214;2023-12-20T12:32:47;2.15;;;1.20;;
34902;SDS011;21114;44.840;0.214;2023-12-20T12:35:13;9.05;;;2.17;;
34902;SDS011;21114;44.840;0.214;2023-12-20T12:37:40;6.38;;;2.08;;
34902;SDS011;21114;44.840;0.214;2023-12-20T12:40:10;4.85;;;1.73;;
34902;SDS011;21114;44.840;0.214;2023-12-20T12:42:37;6.20;;;2.03;;
34902;SDS011;21114;44.840;0.214;2023-12-20T12:45:03;6.18;;;0.68;;
34902;SDS011;21114;44.840;0.214;2023-12-20T12:47:30;5.80;;;1.60;;
34902;SDS011;21114;44.840;0.214;2023-12-20T12:49:56;2.63;;;1.10;;
34902;SDS011;21114;44.840;0.214;2023-12-20T12:52:22;6.28;;;1.10;;
34902;SDS011;21114;44.840;0.214;2023-12-20T12:54:48;2.47;;;1.02;;
34902;SDS011;21114;44.840;0.214;2023-12-20T12:57:14;4.45;;;0.90;;
34902;SDS011;21114;44.840;0.214;2023-12-20T12:59:44;5.38;;;1.80;;
34902;SDS011;21114;44.840;0.214;2023-12-20T13:02:11;5.65;;;1.15;;
34902;SDS011;21114;44.840;0.214;2023-12-20T13:04:41;3.33;;;0.75;;
34902;SDS011;21114;44.840;0.214;2023-12-20T13:07:11;5.18;;;1.30;;
34902;SDS011;21114;44.840;0.214;2023-12-20T13:09:38;2.10;;;0.90;;
34902;SDS011;21114;44.840;0.214;2023-12-20T13:12:04;3.55;;;1.25;;
34902;SDS011;21114;44.840;0.214;2023-12-20T13:14:34;2.65;;;0.63;;
34902;SDS011;21114;44.840;0.214;2023-12-20T13:17:03;5.57;;;2.35;;
34902;SDS011;21114;44.840;0.214;2023-12-20T13:19:29;4.10;;;1.75;;
34902;SDS011;21114;44.840;0.214;2023-12-20T13:21:55;3.55;;;0.88;;
34902;SDS011;21114;44.840;0.214;2023-12-20T13:24:24;5.25;;;1.33;;
34902;SDS011;21114;44.840;0.214;2023-12-20T13:26:50;4.00;;;1.02;;
34902;SDS011;21114;44.840;0.214;2023-12-20T13:29:17;3.45;;;0.80;;
34902;SDS011;21114;44.840;0.214;2023-12-20T13:31:43;4.10;;;1.00;;
34902;SDS011;21114;44.840;0.214;2023-12-20T13:34:09;4.70;;;1.17;;
34902;SDS011;21114;44.840;0.214;2023-12-20T13:36:35;3.03;;;1.75;;
34902;SDS011;21114;44.840;0.214;2023-12-20T13:39:01;4.10;;;1.25;;
34902;SDS011;21114;44.840;0.214;2023-12-20T13:41:29;7.05;;;2.95;;
34902;SDS011;21114;44.840;0.214;2023-12-20T13:43:55;2.85;;;0.90;;
34902;SDS011;21114;44.840;0.214;2023-12-20T13:46:21;5.35;;;1.23;;
34902;SDS011;21114;44.840;0.214;2023-12-20T13:48:47;5.72;;;1.40;;
34902;SDS011;21114;44.840;0.214;2023-12-20T13:51:14;4.93;;;1.27;;
34902;SDS011;21114;44.840;0.214;2023-12-20T13:53:40;6.18;;;1.08;;
34902;SDS011;21114;44.840;0.214;2023-12-20T13:56:06;4.05;;;1.52;;
34902;SDS011;21114;44.840;0.214;2023-12-20T13:58:34;2.20;;;1.00;;
34902;SDS011;21114;44.840;0.214;2023-12-20T14:01:04;4.63;;;2.22;;
34902;SDS011;21114;44.840;0.214;2023-12-20T14:03:35;1.73;;;0.80;;
34902;SDS011;21114;44.840;0.214;2023-12-20T14:06:06;6.85;;;1.92;;
34902;SDS011;21114;44.840;0.214;2023-12-20T14:08:32;4.15;;;1.70;;
34902;SDS011;21114;44.840;0.214;2023-12-20T14:10:58;3.28;;;0.75;;
34902;SDS011;21114;44.840;0.214;2023-12-20T14:13:26;4.13;;;1.42;;
34902;SDS011;21114;44.840;0.214;2023-12-20T14:15:52;4.65;;;0.90;;
34902;SDS011;21114;44.840;0.214;2023-12-20T14:18:20;1.88;;;0.85;;
34902;SDS011;21114;44.840;0.214;2023-12-20T14:20:49;3.83;;;1.73;;
34902;SDS011;21114;44.840;0.214;2023-12-20T14:23:17;1.42;;;1.10;;
34902;SDS011;21114;44.840;0.214;2023-12-20T14:25:46;6.40;;;1.98;;
34902;SDS011;21114;44.840;0.214;2023-12-20T14:28:14;5.43;;;0.82;;
34902;SDS011;21114;44.840;0.214;2023-12-20T14:30:40;7.15;;;2.47;;
34902;SDS011;21114;44.840;0.214;2023-12-20T14:33:06;4.50;;;2.03;;
34902;SDS011;21114;44.840;0.214;2023-12-20T14:35:35;2.03;;;1.08;;
34902;SDS011;21114;44.840;0.214;2023-12-20T14:38:01;6.13;;;1.20;;
34902;SDS011;21114;44.840;0.214;2023-12-20T14:40:29;3.05;;;1.00;;
34902;SDS011;21114;44.840;0.214;2023-12-20T14:42:55;1.55;;;0.73;;
34902;SDS011;21114;44.840;0.214;2023-12-20T14:45:21;7.00;;;1.67;;